createdAt,value
2022-12-16T00:02:18.776Z,94674.41
2022-12-16T00:04:57.583Z,94670.19
2022-12-16T00:07:27.663Z,94682.38
2022-12-16T00:09:55.985Z,94679.25
2022-12-16T00:12:24.395Z,94677.91
2022-12-16T00:14:55.050Z,94674.84
2022-12-16T00:17:23.442Z,94672.88
2022-12-16T00:19:51.886Z,94662.97
2022-12-16T00:22:20.493Z,94665.94
2022-12-16T00:24:48.869Z,94667.59
2022-12-16T00:27:17.180Z,94670.00
2022-12-16T00:29:45.556Z,94663.69
2022-12-16T00:32:15.272Z,94667.09
2022-12-16T00:34:43.619Z,94667.09
2022-12-16T00:37:13.318Z,94668.75
2022-12-16T00:39:41.645Z,94664.22
2022-12-16T00:42:09.969Z,94675.97
2022-12-16T00:44:38.268Z,94668.66
2022-12-16T00:47:06.656Z,94671.25
2022-12-16T00:49:36.949Z,94681.00
2022-12-16T00:52:05.679Z,94675.13
2022-12-16T00:54:33.990Z,94678.56
2022-12-16T00:57:02.300Z,94683.59
2022-12-16T00:59:30.610Z,94685.53
2022-12-16T01:01:59.140Z,94695.97
2022-12-16T01:04:27.784Z,94702.97
2022-12-16T01:06:57.456Z,94706.56
2022-12-16T01:09:25.854Z,94710.63
2022-12-16T01:11:54.216Z,94708.03
2022-12-16T01:14:23.593Z,94718.31
2022-12-16T01:16:52.076Z,94721.22
2022-12-16T01:19:23.102Z,94727.56
2022-12-16T01:21:51.485Z,94742.53
2022-12-16T01:24:22.046Z,94737.44
2022-12-16T01:26:50.381Z,94747.06
2022-12-16T01:29:19.042Z,94747.06
2022-12-16T01:31:47.422Z,94752.28
2022-12-16T01:34:17.001Z,94757.16
2022-12-16T01:36:45.323Z,94754.56
2022-12-16T01:39:13.748Z,94752.63
2022-12-16T01:41:43.424Z,94756.06
2022-12-16T01:44:14.679Z,94748.06
2022-12-16T01:46:44.619Z,94754.66
2022-12-16T01:49:26.414Z,94755.97
2022-12-16T01:51:57.594Z,94760.06
2022-12-16T01:54:31.473Z,94761.19
2022-12-16T01:57:05.044Z,94760.66
2022-12-16T01:59:36.951Z,94765.22
2022-12-16T02:02:06.051Z,94763.72
2022-12-16T02:04:34.454Z,94762.09
2022-12-16T02:07:03.050Z,94758.34
2022-12-16T02:09:31.471Z,94760.44
2022-12-16T02:12:17.438Z,94771.69
2022-12-16T02:15:04.479Z,94765.81
2022-12-16T02:17:42.274Z,94772.81
2022-12-16T02:20:23.887Z,94776.91
2022-12-16T02:23:10.643Z,94778.84
2022-12-16T02:26:11.503Z,94788.44
2022-12-16T02:29:08.230Z,94784.88
2022-12-16T02:31:44.272Z,94785.16
2022-12-16T02:34:22.574Z,94792.78
2022-12-16T02:37:06.751Z,94794.56
2022-12-16T02:39:40.814Z,94785.91
2022-12-16T02:42:15.903Z,94787.84
2022-12-16T02:44:54.448Z,94791.56
2022-12-16T02:47:24.986Z,94801.69
2022-12-16T02:49:55.134Z,94803.34
2022-12-16T02:52:25.921Z,94809.34
2022-12-16T02:54:57.159Z,94802.22
2022-12-16T02:57:42.303Z,94814.13
2022-12-16T03:00:13.678Z,94802.72
2022-12-16T03:02:54.263Z,94808.47
2022-12-16T03:05:26.479Z,94810.25
2022-12-16T03:07:57.651Z,94805.72
2022-12-16T03:10:30.199Z,94801.84
2022-12-16T03:13:02.556Z,94794.69
2022-12-16T03:15:35.095Z,94801.22
2022-12-16T03:18:07.780Z,94801.91
2022-12-16T03:20:41.383Z,94802.88
2022-12-16T03:23:13.929Z,94805.50
2022-12-16T03:25:45.096Z,94807.91
2022-12-16T03:28:25.050Z,94814.63
2022-12-16T03:31:02.811Z,94816.25
2022-12-16T03:33:38.344Z,94823.13
2022-12-16T03:36:11.386Z,94821.47
2022-12-16T03:38:41.524Z,94818.72
2022-12-16T03:41:10.429Z,94821.31
2022-12-16T03:43:41.154Z,94825.59
2022-12-16T03:46:11.388Z,94834.38
2022-12-16T03:48:47.378Z,94844.13
2022-12-16T03:51:15.930Z,94839.06
2022-12-16T03:53:44.357Z,94843.44
2022-12-16T03:56:13.408Z,94846.06
2022-12-16T03:58:41.840Z,94845.25
2022-12-16T04:01:11.060Z,94849.47
2022-12-16T04:03:39.755Z,94855.53
2022-12-16T04:06:09.680Z,94852.94
2022-12-16T04:08:38.152Z,94861.41
2022-12-16T04:11:24.003Z,94868.25
2022-12-16T04:14:09.902Z,94868.25
2022-12-16T04:17:10.394Z,94865.94
2022-12-16T04:19:57.183Z,94869.00
2022-12-16T04:22:48.129Z,94868.59
2022-12-16T04:25:19.857Z,94869.31
2022-12-16T04:27:48.176Z,94867.38
2022-12-16T04:30:23.072Z,94868.19
2022-12-16T04:33:12.523Z,94864.44
2022-12-16T04:35:58.432Z,94871.00
2022-12-16T04:38:46.233Z,94871.66
2022-12-16T04:41:32.243Z,94875.91
2022-12-16T04:44:18.477Z,94887.00
2022-12-16T04:47:04.691Z,94885.88
2022-12-16T04:49:50.676Z,94886.19
2022-12-16T04:52:36.793Z,94894.16
2022-12-16T04:55:25.204Z,94903.09
2022-12-16T04:58:12.566Z,94902.44
2022-12-16T05:00:59.088Z,94901.75
2022-12-16T05:03:45.803Z,94910.41
2022-12-16T05:06:32.312Z,94912.69
2022-12-16T05:09:18.224Z,94912.69
2022-12-16T05:12:05.061Z,94919.41
2022-12-16T05:14:50.991Z,94921.03
2022-12-16T05:17:36.856Z,94918.28
2022-12-16T05:20:23.614Z,94925.97
2022-12-16T05:23:09.542Z,94926.78
2022-12-16T05:25:55.397Z,94937.06
2022-12-16T05:28:42.512Z,94935.28
2022-12-16T05:31:28.587Z,94930.06
2022-12-16T05:34:14.481Z,94935.28
2022-12-16T05:37:11.929Z,94929.25
2022-12-16T05:39:57.834Z,94930.06
2022-12-16T05:42:46.611Z,94945.03
2022-12-16T05:45:48.523Z,94951.91
2022-12-16T05:48:36.788Z,94955.44
2022-12-16T05:51:22.659Z,94973.03
2022-12-16T05:54:08.622Z,94978.09
2022-12-16T05:56:54.397Z,94983.84
2022-12-16T05:59:39.455Z,94979.59
2022-12-16T06:02:26.920Z,94977.97
2022-12-16T06:05:12.886Z,94976.97
2022-12-16T06:07:59.145Z,94980.25
2022-12-16T06:10:45.017Z,94979.13
2022-12-16T06:13:39.323Z,94986.81
2022-12-16T06:16:25.730Z,94994.78
2022-12-16T06:19:13.004Z,95003.72
2022-12-16T06:21:58.969Z,95007.44
2022-12-16T06:24:45.056Z,95009.75
2022-12-16T06:27:30.977Z,95016.63
2022-12-16T06:30:16.993Z,95019.22
2022-12-16T06:33:09.050Z,95014.16
2022-12-16T06:35:56.199Z,95017.56
2022-12-16T06:38:43.844Z,95040.22
2022-12-16T06:41:29.824Z,95035.31
2022-12-16T06:44:15.910Z,95044.75
2022-12-16T06:47:01.836Z,95042.16
2022-12-16T06:49:47.862Z,95047.38
2022-12-16T06:52:35.230Z,95051.09
2022-12-16T06:55:21.225Z,95054.66
2022-12-16T06:58:10.097Z,95053.69
2022-12-16T07:00:56.139Z,95067.53
2022-12-16T07:03:42.913Z,95075.38
2022-12-16T07:06:25.238Z,95073.69
2022-12-16T07:09:12.490Z,95090.47
2022-12-16T07:11:58.465Z,95097.47
2022-12-16T07:14:44.237Z,95095.53
2022-12-16T07:17:30.242Z,95103.38
2022-12-16T07:20:16.306Z,95105.16
2022-12-16T07:23:10.652Z,95108.44
2022-12-16T07:26:00.501Z,95117.75
2022-12-16T07:28:46.295Z,95135.03
2022-12-16T07:31:32.480Z,95128.84
2022-12-16T07:34:18.607Z,95137.22
2022-12-16T07:37:04.397Z,95142.28
2022-12-16T07:39:54.891Z,95154.34
2022-12-16T07:42:42.658Z,95152.56
2022-12-16T07:45:29.744Z,95158.59
2022-12-16T07:48:15.438Z,95164.78
2022-12-16T07:51:01.400Z,95174.25
2022-12-16T07:53:47.216Z,95179.59
2022-12-16T07:56:35.853Z,95183.31
2022-12-16T07:59:26.190Z,95187.69
2022-12-16T08:02:12.410Z,95189.22
2022-12-16T08:04:58.269Z,95193.44
2022-12-16T08:07:44.181Z,95202.13
2022-12-16T08:10:30.058Z,95192.38
2022-12-16T08:16:27.094Z,95201.94
2022-12-16T08:19:13.054Z,95213.91
2022-12-16T08:21:59.021Z,95208.38
2022-12-16T08:24:51.364Z,95217.06
2022-12-16T08:27:40.279Z,95220.34
2022-12-16T08:30:27.321Z,95219.22
2022-12-16T08:33:19.211Z,95222.50
2022-12-16T08:36:17.147Z,95231.16
2022-12-16T08:39:03.069Z,95235.41
2022-12-16T08:41:49.167Z,95236.50
2022-12-16T08:44:34.980Z,95247.78
2022-12-16T08:47:21.106Z,95245.03
2022-12-16T08:50:08.638Z,95246.53
2022-12-16T08:52:54.804Z,95249.00
2022-12-16T08:55:40.706Z,95253.09
2022-12-16T08:58:26.791Z,95255.69
2022-12-16T09:01:12.742Z,95267.75
2022-12-16T09:03:58.860Z,95274.63
2022-12-16T09:06:46.177Z,95279.03
2022-12-16T09:09:32.001Z,95280.97
2022-12-16T09:12:18.099Z,95280.66
2022-12-16T09:15:04.142Z,95288.09
2022-12-16T09:17:50.105Z,95290.81
2022-12-16T09:20:36.913Z,95296.81
2022-12-16T09:23:24.653Z,95294.28
2022-12-16T09:26:10.608Z,95306.94
2022-12-16T09:28:56.571Z,95313.38
2022-12-16T09:31:42.459Z,95315.41
2022-12-16T09:34:28.321Z,95314.81
2022-12-16T09:37:14.468Z,95316.97
2022-12-16T09:40:01.726Z,95314.09
2022-12-16T09:42:55.389Z,95314.50
2022-12-16T09:45:45.142Z,95318.47
2022-12-16T09:48:37.962Z,95331.06
2022-12-16T09:51:26.832Z,95331.59
2022-12-16T09:54:14.598Z,95330.88
2022-12-16T09:57:04.050Z,95333.50
2022-12-16T09:59:54.069Z,95334.16
2022-12-16T10:02:49.991Z,95338.13
2022-12-16T10:05:44.406Z,95343.22
2022-12-16T10:08:40.897Z,95338.00
2022-12-16T10:11:32.774Z,95345.69
2022-12-16T10:14:27.258Z,95344.03
2022-12-16T10:17:23.947Z,95340.88
2022-12-16T10:20:19.085Z,95354.38
2022-12-16T10:23:12.192Z,95347.00
2022-12-16T10:26:10.387Z,95355.78
2022-12-16T10:29:03.962Z,95365.03
2022-12-16T10:31:52.089Z,95369.88
2022-12-16T10:34:47.123Z,95363.25
2022-12-16T10:37:40.603Z,95373.72
2022-12-16T10:40:36.742Z,95369.16
2022-12-16T10:43:29.781Z,95376.44
2022-12-16T10:46:18.978Z,95370.56
2022-12-16T10:49:06.270Z,95376.19
2022-12-16T10:51:52.210Z,95385.41
2022-12-16T10:54:52.163Z,95381.31
2022-12-16T10:58:00.443Z,95383.09
2022-12-16T11:00:56.677Z,95384.63
2022-12-16T11:03:44.869Z,95383.28
2022-12-16T11:06:38.424Z,95388.75
2022-12-16T11:09:35.028Z,95393.44
2022-12-16T11:12:38.655Z,95389.63
2022-12-16T11:15:42.171Z,95382.75
2022-12-16T11:18:30.881Z,95383.03
2022-12-16T11:21:35.826Z,95384.53
2022-12-16T11:24:29.746Z,95386.31
2022-12-16T11:27:18.139Z,95391.25
2022-12-16T11:30:14.337Z,95382.63
2022-12-16T11:33:05.185Z,95390.72
2022-12-16T11:35:53.245Z,95389.34
2022-12-16T11:38:44.284Z,95394.03
2022-12-16T11:41:43.389Z,95393.47
2022-12-16T11:44:37.706Z,95391.72
2022-12-16T11:47:34.721Z,95390.75
2022-12-16T11:50:20.698Z,95389.66
2022-12-16T11:53:14.969Z,95399.13
2022-12-16T11:56:11.256Z,95404.34
2022-12-16T11:59:04.559Z,95407.75
2022-12-16T12:01:56.549Z,95406.00
2022-12-16T12:04:42.800Z,95421.78
2022-12-16T12:07:46.083Z,95421.78
2022-12-16T12:11:13.797Z,95431.41
2022-12-16T12:14:10.655Z,95426.19
2022-12-16T12:17:13.133Z,95429.63
2022-12-16T12:20:07.627Z,95434.16
2022-12-16T12:22:56.958Z,95435.22
2022-12-16T12:25:51.674Z,95433.72
2022-12-16T12:28:51.472Z,95432.38
2022-12-16T12:32:04.366Z,95437.84
2022-12-16T12:34:58.512Z,95435.25
2022-12-16T12:37:49.367Z,95433.63
2022-12-16T12:40:50.075Z,95445.84
2022-12-16T12:43:48.746Z,95446.78
2022-12-16T12:46:47.606Z,95455.59
2022-12-16T12:49:43.192Z,95453.13
2022-12-16T12:52:42.262Z,95457.50
2022-12-16T12:55:36.358Z,95463.25
2022-12-16T12:58:25.721Z,95460.50
2022-12-16T13:01:16.754Z,95458.03
2022-12-16T13:04:09.073Z,95456.97
2022-12-16T13:06:56.116Z,95460.25
2022-12-16T13:09:48.795Z,95473.56
2022-12-16T13:12:43.422Z,95471.50
2022-12-16T13:15:37.077Z,95479.34
2022-12-16T13:18:43.808Z,95481.13
2022-12-16T13:22:02.291Z,95478.66
2022-12-16T13:24:59.086Z,95486.59
2022-12-16T13:27:47.558Z,95498.84
2022-12-16T13:30:42.617Z,95494.44
2022-12-16T13:33:44.994Z,95504.72
2022-12-16T13:36:33.951Z,95509.94
2022-12-16T13:39:38.952Z,95512.44
2022-12-16T13:42:25.001Z,95512.44
2022-12-16T13:45:16.578Z,95521.19
2022-12-16T13:48:20.493Z,95522.88
2022-12-16T13:51:18.046Z,95518.47
2022-12-16T13:54:11.052Z,95527.94
2022-12-16T13:57:13.674Z,95535.91
2022-12-16T14:00:09.102Z,95536.03
2022-12-16T14:02:59.170Z,95535.22
2022-12-16T14:05:49.238Z,95535.22
2022-12-16T14:08:39.539Z,95546.72
2022-12-16T14:11:33.574Z,95559.09
2022-12-16T14:14:25.192Z,95573.91
2022-12-16T14:17:14.157Z,95571.56
2022-12-16T14:20:13.166Z,95579.56
2022-12-16T14:23:32.387Z,95588.19
2022-12-16T14:26:21.667Z,95594.63
2022-12-16T14:29:07.677Z,95602.84
2022-12-16T14:31:55.633Z,95599.53
2022-12-16T14:34:44.924Z,95607.50
2022-12-16T14:37:32.332Z,95602.16
2022-12-16T14:40:18.202Z,95611.47
2022-12-16T14:43:09.901Z,95613.31
2022-12-16T14:46:06.505Z,95617.59
2022-12-16T14:48:55.053Z,95611.16
2022-12-16T14:51:45.933Z,95619.56
2022-12-16T14:54:37.347Z,95619.69
2022-12-16T14:57:24.637Z,95623.09
2022-12-16T15:00:29.586Z,95627.38
2022-12-16T15:03:18.946Z,95628.31
2022-12-16T15:06:09.142Z,95640.81
2022-12-16T15:09:02.267Z,95645.06
2022-12-16T15:11:48.137Z,95653.84
2022-12-16T15:14:36.955Z,95655.63
2022-12-16T15:17:24.270Z,95664.13
2022-12-16T15:20:12.282Z,95661.53
2022-12-16T15:23:03.756Z,95656.59
2022-12-16T15:25:50.261Z,95664.78
2022-12-16T15:28:44.185Z,95667.66
2022-12-16T15:31:34.611Z,95679.19
2022-12-16T15:34:42.549Z,95678.63
2022-12-16T15:37:36.622Z,95680.25
2022-12-16T15:40:40.649Z,95688.34
2022-12-16T15:43:40.224Z,95692.00
2022-12-16T15:46:35.979Z,95686.50
2022-12-16T15:49:23.115Z,95688.13
2022-12-16T15:52:10.687Z,95703.06
2022-12-16T15:55:09.629Z,95717.19
2022-12-16T15:57:57.224Z,95725.94
2022-12-16T16:00:44.846Z,95722.66
2022-12-16T16:03:44.108Z,95724.81
2022-12-16T16:06:37.293Z,95722.97
2022-12-16T16:09:33.015Z,95731.53
2022-12-16T16:12:18.999Z,95736.66
2022-12-16T16:15:04.957Z,95740.28
2022-12-16T16:17:50.953Z,95737.59
2022-12-16T16:20:37.561Z,95747.31
2022-12-16T16:23:23.379Z,95753.59
2022-12-16T16:26:07.018Z,95759.50
2022-12-16T16:28:53.456Z,95746.13
2022-12-16T16:31:39.670Z,95757.22
2022-12-16T16:34:25.409Z,95757.50
2022-12-16T16:37:13.264Z,95756.75
2022-12-16T16:39:59.270Z,95777.03
2022-12-16T16:42:46.639Z,95778.34
2022-12-16T16:45:33.520Z,95785.19
2022-12-16T16:48:25.110Z,95780.94
2022-12-16T16:51:14.497Z,95788.75
2022-12-16T16:54:00.704Z,95791.69
2022-12-16T16:56:49.290Z,95798.91
2022-12-16T16:59:36.872Z,95791.84
2022-12-16T17:02:40.262Z,95806.50
2022-12-16T17:05:28.070Z,95807.69
2022-12-16T17:08:13.983Z,95818.69
2022-12-16T17:11:00.673Z,95823.41
2022-12-16T17:13:46.581Z,95820.47
2022-12-16T17:16:34.097Z,95828.59
2022-12-16T17:19:20.680Z,95830.50
2022-12-16T17:22:06.753Z,95831.47
2022-12-16T17:24:54.296Z,95831.22
2022-12-16T17:27:47.997Z,95838.91
2022-12-16T17:30:36.319Z,95843.16
2022-12-16T17:33:23.822Z,95847.53
2022-12-16T17:36:10.842Z,95851.19
2022-12-16T17:38:58.413Z,95857.72
2022-12-16T17:41:45.932Z,95858.19
2022-12-16T17:44:31.834Z,95858.44
2022-12-16T17:47:18.056Z,95866.56
2022-12-16T17:50:05.283Z,95868.84
2022-12-16T17:52:51.177Z,95870.25
2022-12-16T17:55:37.035Z,95879.59
2022-12-16T17:58:22.925Z,95882.66
2022-12-16T18:01:08.973Z,95887.16
2022-12-16T18:03:54.860Z,95889.66
2022-12-16T18:06:42.127Z,95890.47
2022-12-16T18:09:28.336Z,95904.31
2022-12-16T18:12:25.720Z,95900.06
2022-12-16T18:15:12.789Z,95913.66
2022-12-16T18:17:58.415Z,95911.06
2022-12-16T18:20:43.460Z,95910.97
2022-12-16T18:23:30.895Z,95922.19
2022-12-16T18:26:18.317Z,95923.38
2022-12-16T18:29:04.373Z,95927.28
2022-12-16T18:31:50.374Z,95935.31
2022-12-16T18:34:36.374Z,95944.75
2022-12-16T18:37:23.958Z,95936.94
2022-12-16T18:40:11.424Z,95945.19
2022-12-16T18:42:57.185Z,95947.34
2022-12-16T18:45:43.115Z,95947.78
2022-12-16T18:48:29.147Z,95952.38
2022-12-16T18:51:17.993Z,95954.06
2022-12-16T18:54:04.450Z,95952.50
2022-12-16T18:56:51.510Z,95956.66
2022-12-16T18:59:58.822Z,95964.13
2022-12-16T19:02:45.042Z,95968.97
2022-12-16T19:05:36.016Z,95975.03
2022-12-16T19:08:21.889Z,95978.19
2022-12-16T19:11:13.181Z,95980.91
2022-12-16T19:14:00.209Z,95984.66
2022-12-16T19:16:46.266Z,95997.69
2022-12-16T19:19:32.218Z,95998.75
2022-12-16T19:22:20.339Z,96000.19
2022-12-16T19:25:06.183Z,96008.06
2022-12-16T19:27:52.274Z,96007.78
2022-12-16T19:30:39.061Z,96013.94
2022-12-16T19:33:25.177Z,96022.00
2022-12-16T19:36:14.147Z,96025.22
2022-12-16T19:39:02.747Z,96025.28
2022-12-16T19:41:48.665Z,96022.50
2022-12-16T19:44:34.620Z,96030.66
2022-12-16T19:47:21.959Z,96030.84
2022-12-16T19:50:07.766Z,96039.88
2022-12-16T19:52:53.789Z,96042.38
2022-12-16T19:55:42.276Z,96043.44
2022-12-16T19:58:28.210Z,96052.28
2022-12-16T20:01:14.235Z,96049.13
2022-12-16T20:04:01.657Z,96053.31
2022-12-16T20:06:47.569Z,96055.22
2022-12-16T20:09:33.586Z,96057.09
2022-12-16T20:12:19.402Z,96060.84
2022-12-16T20:15:05.430Z,96064.69
2022-12-16T20:17:56.318Z,96071.84
2022-12-16T20:20:43.966Z,96076.25
2022-12-16T20:23:29.877Z,96076.84
2022-12-16T20:26:17.791Z,96093.06
2022-12-16T20:29:04.328Z,96098.19
2022-12-16T20:31:50.813Z,96093.56
2022-12-16T20:34:37.570Z,96096.06
2022-12-16T20:37:24.929Z,96103.13
2022-12-16T20:40:11.007Z,96107.88
2022-12-16T20:42:56.872Z,96106.28
2022-12-16T20:45:42.590Z,96112.78
2022-12-16T20:48:32.535Z,96105.31
2022-12-16T20:51:26.157Z,96112.56
2022-12-16T20:54:14.150Z,96113.28
2022-12-16T20:57:00.749Z,96120.97
2022-12-16T20:59:46.775Z,96126.91
2022-12-16T21:05:38.974Z,96131.44
2022-12-16T21:08:25.029Z,96137.03
2022-12-16T21:11:16.331Z,96143.91
2022-12-16T21:14:02.366Z,96142.84
2022-12-16T21:16:48.394Z,96136.69
2022-12-16T21:19:34.501Z,96138.47
2022-12-16T21:22:20.046Z,96140.34
2022-12-16T21:25:06.084Z,96152.31
2022-12-16T21:27:53.625Z,96156.38
2022-12-16T21:30:41.426Z,96163.13
2022-12-16T21:33:35.082Z,96166.88
2022-12-16T21:36:20.973Z,96166.28
2022-12-16T21:39:07.032Z,96168.16
2022-12-16T21:41:52.914Z,96168.88
2022-12-16T21:44:43.419Z,96175.31
2022-12-16T21:47:29.409Z,96182.66
2022-12-16T21:50:15.495Z,96188.34
2022-12-16T21:53:01.681Z,96192.63
2022-12-16T21:55:47.842Z,96195.69
2022-12-16T21:58:33.722Z,96203.81
2022-12-16T22:01:25.500Z,96204.34
2022-12-16T22:04:11.837Z,96213.66
2022-12-16T22:06:57.884Z,96209.72
2022-12-16T22:09:43.809Z,96215.69
2022-12-16T22:12:29.772Z,96215.41
2022-12-16T22:15:15.749Z,96212.41
2022-12-16T22:18:03.080Z,96218.34
2022-12-16T22:20:49.054Z,96216.69
2022-12-16T22:23:34.918Z,96227.41
2022-12-16T22:26:21.229Z,96223.53
2022-12-16T22:29:07.193Z,96222.72
2022-12-16T22:31:55.077Z,96227.69
2022-12-16T22:34:43.606Z,96229.22
2022-12-16T22:37:29.512Z,96239.53
2022-12-16T22:40:15.501Z,96239.88
2022-12-16T22:43:00.842Z,96246.00
2022-12-16T22:45:46.856Z,96245.50
2022-12-16T22:48:32.744Z,96254.47
2022-12-16T22:51:20.030Z,96244.34
2022-12-16T22:54:07.076Z,96255.38
2022-12-16T22:56:52.953Z,96260.16
2022-12-16T22:59:42.237Z,96261.22
2022-12-16T23:02:28.245Z,96261.13
2022-12-16T23:05:14.162Z,96264.34
2022-12-16T23:08:01.233Z,96267.25
2022-12-16T23:10:47.136Z,96271.41
2022-12-16T23:13:32.942Z,96264.88
2022-12-16T23:16:19.073Z,96266.31
2022-12-16T23:19:05.107Z,96263.06
2022-12-16T23:21:50.889Z,96272.81
2022-12-16T23:24:38.300Z,96274.91
2022-12-16T23:27:24.153Z,96274.47
2022-12-16T23:30:10.216Z,96283.84
2022-12-16T23:32:56.150Z,96289.06
2022-12-16T23:35:42.422Z,96293.31
2022-12-16T23:38:28.805Z,96290.41
2022-12-16T23:41:16.993Z,96291.13
2022-12-16T23:44:04.053Z,96297.88
2022-12-16T23:46:50.023Z,96306.19
2022-12-16T23:49:36.054Z,96309.72
2022-12-16T23:52:21.912Z,96313.16
2022-12-16T23:55:07.774Z,96312.84
2022-12-16T23:58:06.489Z,96306.47
